createdAt,value
2022-11-10T11:33:21.420Z,15.00
2022-11-10T11:36:19.925Z,15.00
2022-11-10T11:39:23.998Z,15.00
2022-11-10T11:42:23.187Z,15.10
2022-11-10T11:45:19.610Z,15.10
2022-11-10T11:48:30.419Z,15.10
2022-11-10T11:51:24.695Z,15.20
2022-11-10T11:54:30.312Z,15.20
2022-11-10T11:57:37.117Z,15.20
2022-11-10T12:00:27.317Z,15.30
2022-11-10T12:04:04.066Z,15.30
2022-11-10T12:07:06.220Z,15.30
2022-11-10T12:10:16.545Z,15.40
2022-11-10T12:13:26.376Z,15.50
2022-11-10T12:16:22.316Z,15.40
2022-11-10T12:19:24.323Z,15.50
2022-11-10T12:22:23.681Z,15.50
2022-11-10T12:25:25.481Z,15.50
2022-11-10T12:28:20.084Z,15.50
2022-11-10T12:31:15.581Z,15.50
2022-11-10T12:34:08.020Z,15.60
2022-11-10T12:36:56.462Z,15.60
2022-11-10T12:39:53.606Z,15.60
2022-11-10T12:42:40.718Z,15.70
2022-11-10T12:45:32.560Z,15.70
2022-11-10T12:48:21.231Z,15.70
2022-11-10T12:51:15.249Z,15.70
2022-11-10T12:54:03.546Z,15.80
2022-11-10T12:56:58.087Z,15.80
2022-11-10T12:59:56.294Z,15.80
2022-11-10T13:02:46.784Z,15.90
2022-11-10T13:05:38.406Z,15.90
2022-11-10T13:08:32.880Z,15.90
2022-11-10T13:11:29.346Z,15.90
2022-11-10T13:14:26.596Z,16.00
2022-11-10T13:17:53.845Z,16.00
2022-11-10T13:20:52.303Z,16.00
2022-11-10T13:24:23.153Z,16.00
2022-11-10T13:27:15.956Z,16.10
2022-11-10T13:30:02.849Z,16.10
2022-11-10T13:32:50.097Z,16.10
2022-11-10T13:35:55.683Z,16.10
2022-11-10T13:38:44.405Z,16.10
2022-11-10T13:41:35.780Z,16.20
2022-11-10T13:44:26.827Z,16.20
2022-11-10T13:47:56.153Z,16.20
2022-11-10T13:50:56.337Z,16.20
2022-11-10T13:53:56.607Z,16.20
2022-11-10T13:57:22.127Z,16.20
2022-11-10T14:00:27.721Z,16.20
2022-11-10T14:03:57.435Z,16.20
2022-11-10T14:06:50.222Z,16.20
2022-11-10T14:09:40.805Z,16.30
2022-11-10T14:12:35.492Z,16.20
2022-11-10T14:15:29.374Z,16.20
2022-11-10T14:18:22.759Z,16.20
2022-11-10T14:21:22.457Z,16.20
2022-11-10T14:24:17.500Z,16.20
2022-11-10T14:27:09.568Z,16.30
2022-11-10T14:30:20.599Z,16.20
2022-11-10T14:33:14.583Z,16.20
2022-11-10T14:36:04.245Z,16.20
2022-11-10T14:38:53.923Z,16.20
2022-11-10T14:41:47.646Z,16.20
2022-11-10T14:44:35.876Z,16.20
2022-11-10T14:47:31.191Z,16.20
2022-11-10T14:50:21.476Z,16.20
2022-11-10T14:53:16.075Z,16.20
2022-11-10T14:56:08.596Z,16.10
2022-11-10T14:58:57.051Z,16.10
2022-11-10T15:01:54.636Z,16.10
2022-11-10T15:04:45.757Z,16.10
2022-11-10T15:07:33.448Z,16.00
2022-11-10T15:10:26.373Z,16.00
2022-11-10T15:13:39.084Z,16.00
2022-11-10T15:16:28.767Z,15.90
2022-11-10T15:19:24.466Z,15.90
2022-11-10T15:22:19.411Z,15.90
2022-11-10T15:25:17.274Z,15.80
2022-11-10T15:28:13.717Z,15.80
2022-11-10T15:31:05.447Z,15.70
2022-11-10T15:33:54.358Z,15.70
2022-11-10T15:36:41.096Z,15.70
2022-11-10T15:39:28.818Z,15.60
2022-11-10T15:42:19.423Z,15.70
2022-11-10T15:45:07.580Z,15.60
2022-11-10T15:47:56.760Z,15.60
2022-11-10T15:50:45.209Z,15.50
2022-11-10T15:53:34.880Z,15.50
2022-11-10T15:56:24.149Z,15.50
2022-11-10T15:59:11.987Z,15.40
2022-11-10T16:02:02.546Z,15.40
2022-11-10T16:04:58.614Z,15.50
2022-11-10T16:07:47.449Z,15.30
2022-11-10T16:10:34.454Z,15.30
2022-11-10T16:13:26.620Z,15.30
2022-11-10T16:16:16.536Z,15.20
2022-11-10T16:19:04.596Z,15.20
2022-11-10T16:21:53.298Z,15.20
2022-11-10T16:24:41.113Z,15.00
2022-11-10T16:27:28.320Z,15.10
2022-11-10T16:30:16.670Z,15.10
2022-11-10T16:33:04.580Z,15.10
2022-11-10T16:35:53.528Z,15.00
2022-11-10T16:38:41.689Z,15.00
2022-11-10T16:41:28.850Z,15.00
2022-11-10T16:44:24.780Z,14.90
2022-11-10T16:47:19.896Z,14.80
2022-11-10T16:50:11.192Z,14.90
2022-11-10T16:52:58.536Z,14.80
2022-11-10T16:55:46.999Z,14.80
2022-11-10T16:58:33.866Z,14.70
2022-11-10T17:01:24.827Z,14.70
2022-11-10T17:04:14.256Z,14.70
2022-11-10T17:07:01.255Z,14.60
2022-11-10T17:09:48.467Z,14.60
2022-11-10T17:12:36.915Z,14.60
2022-11-10T17:15:24.175Z,14.50
2022-11-10T17:18:15.440Z,14.50
2022-11-10T17:21:03.675Z,14.50
2022-11-10T17:23:51.143Z,14.40
2022-11-10T17:26:38.193Z,14.40
2022-11-10T17:29:26.761Z,14.40
2022-11-10T17:32:13.691Z,14.30
2022-11-10T17:35:00.877Z,14.30
2022-11-10T17:37:51.531Z,14.30
2022-11-10T17:40:38.509Z,14.20
2022-11-10T17:43:26.014Z,14.20
2022-11-10T17:46:15.701Z,14.20
2022-11-10T17:49:03.325Z,14.20
2022-11-10T17:51:50.382Z,14.10
2022-11-10T17:54:37.281Z,14.10
2022-11-10T17:57:24.342Z,14.10
2022-11-10T18:00:15.920Z,14.10
2022-11-10T18:03:08.553Z,14.00
2022-11-10T18:05:55.352Z,14.00
2022-11-10T18:08:43.371Z,14.00
2022-11-10T18:11:30.535Z,13.80
2022-11-10T18:14:17.639Z,13.90
2022-11-10T18:17:19.409Z,13.90
2022-11-10T18:20:09.999Z,13.90
2022-11-10T18:22:57.230Z,13.80
2022-11-10T18:25:44.890Z,13.80
2022-11-10T18:28:32.004Z,13.80
2022-11-10T18:31:19.256Z,13.70
2022-11-10T18:34:06.433Z,13.70
2022-11-10T18:36:55.210Z,13.70
2022-11-10T18:39:43.230Z,13.60
2022-11-10T18:42:30.559Z,13.60
2022-11-10T18:45:18.026Z,13.60
2022-11-10T18:48:06.014Z,13.60
2022-11-10T18:50:52.871Z,13.60
2022-11-10T18:53:41.392Z,13.50
2022-11-10T18:56:28.602Z,13.50
2022-11-10T18:59:15.863Z,13.50
2022-11-10T19:02:02.867Z,13.40
2022-11-10T19:04:53.523Z,13.40
2022-11-10T19:07:40.849Z,13.40
2022-11-10T19:10:29.309Z,13.40
2022-11-10T19:13:17.520Z,13.30
2022-11-10T19:16:07.840Z,13.30
2022-11-10T19:18:55.000Z,13.30
2022-11-10T19:21:42.315Z,13.20
2022-11-10T19:24:34.700Z,13.20
2022-11-10T19:27:26.012Z,13.20
2022-11-10T19:30:14.140Z,13.10
2022-11-10T19:33:02.400Z,13.10
2022-11-10T19:35:49.438Z,13.10
2022-11-10T19:38:37.813Z,13.10
2022-11-10T19:41:31.042Z,13.10
2022-11-10T19:44:19.361Z,13.00
2022-11-10T19:47:07.386Z,13.00
2022-11-10T19:49:54.807Z,12.90
2022-11-10T19:52:41.795Z,12.90
2022-11-10T19:55:28.914Z,12.90
2022-11-10T19:58:16.192Z,12.90
2022-11-10T20:01:05.285Z,12.80
2022-11-10T20:03:52.271Z,12.80
2022-11-10T20:06:39.612Z,12.80
2022-11-10T20:09:26.659Z,12.80
2022-11-10T20:12:13.375Z,12.70
2022-11-10T20:15:00.504Z,12.70
2022-11-10T20:17:48.855Z,12.70
2022-11-10T20:20:39.275Z,12.70
2022-11-10T20:23:26.843Z,12.60
2022-11-10T20:26:16.948Z,12.60
2022-11-10T20:29:03.600Z,12.60
2022-11-10T20:31:50.718Z,12.50
2022-11-10T20:34:39.237Z,12.50
2022-11-10T20:37:26.138Z,12.50
2022-11-10T20:40:42.469Z,12.50
2022-11-10T20:43:22.066Z,12.50
2022-11-10T20:46:33.328Z,12.50
2022-11-10T20:49:21.597Z,12.40
2022-11-10T20:52:10.485Z,12.40
2022-11-10T20:54:57.366Z,12.40
2022-11-10T20:57:44.531Z,12.40
2022-11-10T21:00:31.491Z,12.40
2022-11-10T21:03:18.539Z,12.40
2022-11-10T21:06:06.547Z,12.30
2022-11-10T21:08:56.984Z,12.30
2022-11-10T21:12:01.449Z,12.30
2022-11-10T21:14:48.744Z,12.30
2022-11-10T21:17:38.122Z,12.20
2022-11-10T21:20:28.679Z,12.20
2022-11-10T21:23:15.717Z,12.20
2022-11-10T21:26:04.461Z,12.20
2022-11-10T21:28:51.161Z,12.10
2022-11-10T21:31:38.514Z,12.10
2022-11-10T21:34:27.767Z,12.10
2022-11-10T21:37:15.087Z,12.10
2022-11-10T21:40:02.093Z,12.00
2022-11-10T21:42:56.166Z,12.00
2022-11-10T21:45:43.537Z,12.00
2022-11-10T21:48:30.508Z,12.00
2022-11-10T21:51:17.848Z,12.00
2022-11-10T21:54:04.801Z,11.90
2022-11-10T21:56:51.917Z,11.90
2022-11-10T21:59:40.582Z,11.90
2022-11-10T22:02:27.652Z,11.90
2022-11-10T22:05:15.083Z,11.90
2022-11-10T22:08:02.176Z,11.80
2022-11-10T22:11:07.186Z,11.80
2022-11-10T22:14:11.657Z,11.80
2022-11-10T22:17:15.222Z,11.80
2022-11-10T22:20:02.328Z,11.70
2022-11-10T22:22:50.219Z,11.70
2022-11-10T22:25:37.540Z,11.70
2022-11-10T22:28:24.603Z,11.70
2022-11-10T22:31:12.895Z,11.60
2022-11-10T22:34:01.224Z,11.60
2022-11-10T22:36:50.281Z,11.60
2022-11-10T22:39:54.799Z,11.60
2022-11-10T22:42:59.425Z,11.60
2022-11-10T22:45:46.566Z,11.60
2022-11-10T22:48:33.824Z,11.50
2022-11-10T22:51:22.557Z,11.50
2022-11-10T22:54:12.809Z,11.50
2022-11-10T22:56:59.612Z,11.50
2022-11-10T22:59:46.536Z,11.50
2022-11-10T23:02:33.723Z,11.50
2022-11-10T23:05:20.755Z,11.50
2022-11-10T23:08:09.362Z,11.50
2022-11-10T23:11:01.154Z,11.50
2022-11-10T23:13:49.824Z,11.50
2022-11-10T23:16:36.962Z,11.50
2022-11-10T23:19:23.835Z,11.50
2022-11-10T23:22:11.011Z,11.50
2022-11-10T23:24:59.772Z,11.50
2022-11-10T23:27:46.860Z,11.50
2022-11-10T23:30:34.648Z,11.50
2022-11-10T23:33:22.369Z,11.50
2022-11-10T23:36:12.214Z,11.50
2022-11-10T23:38:59.482Z,11.50
2022-11-10T23:41:47.852Z,11.50
2022-11-10T23:44:34.996Z,11.50
2022-11-10T23:47:21.982Z,11.50
2022-11-10T23:50:10.312Z,11.50
2022-11-10T23:52:57.299Z,11.50
2022-11-10T23:55:44.875Z,11.50
2022-11-10T23:58:34.105Z,11.50
